Belfry, Montana
Current Conditions -  °F | °C
As of 3:55 PM on Sunday 21 Dec 2014 (Local Time) from KPOY Reporting Station
Clear Clear  
Wind Chill: 32°   Ceiling: Unl
Heat Index: 32°   Visibility: 10mi
Dew Point: 32°   Wind: 3mph
Humidity: 100%   Direction: 180°S
Pressure: 29.53"   Gusts: NA
Location:  45.14°N, 109.01°W
Report Text: KPOY 212255Z AUTO 18003KT 10SM CLR 00/00 A2953 RMK AO2
Loading
Personal Weather Stations






























Interactive Weather Map New forecast layout! Learn more

10-Day Weather Forecast

Advertisements
Track Severe Weather on mobile